createdAt,value
2023-05-15T00:01:29.731Z,12.64
2023-05-15T00:04:38.289Z,12.67
2023-05-15T00:07:46.966Z,12.78
2023-05-15T00:13:58.155Z,12.84
2023-05-15T00:17:07.267Z,12.84
2023-05-15T00:20:16.821Z,12.88
2023-05-15T00:23:26.623Z,12.95
2023-05-15T00:26:35.927Z,12.97
2023-05-15T00:29:44.590Z,12.96
2023-05-15T00:32:54.645Z,12.93
2023-05-15T00:36:03.553Z,12.88
2023-05-15T00:39:08.486Z,12.85
2023-05-15T00:42:18.378Z,12.78
2023-05-15T00:45:27.439Z,12.74
2023-05-15T00:48:35.550Z,12.60
2023-05-15T00:51:46.011Z,12.27
2023-05-15T00:54:56.517Z,12.02
2023-05-15T00:58:05.068Z,11.93
2023-05-15T01:01:14.266Z,12.01
2023-05-15T01:04:13.970Z,12.01
2023-05-15T01:07:22.417Z,11.96
2023-05-15T01:10:30.960Z,11.97
2023-05-15T01:13:33.625Z,11.85
2023-05-15T01:16:43.046Z,11.75
2023-05-15T01:19:51.616Z,11.70
2023-05-15T01:23:02.010Z,11.61
2023-05-15T01:26:08.005Z,11.56
2023-05-15T01:29:17.855Z,11.44
2023-05-15T01:32:26.834Z,11.41
2023-05-15T01:35:36.320Z,11.44
2023-05-15T01:38:46.394Z,11.43
2023-05-15T01:41:55.287Z,11.44
2023-05-15T01:45:03.808Z,11.47
2023-05-15T01:48:14.407Z,11.47
2023-05-15T01:51:23.513Z,11.47
2023-05-15T01:54:32.421Z,11.34
2023-05-15T01:57:42.372Z,11.34
2023-05-15T02:00:51.305Z,11.31
2023-05-15T02:03:59.419Z,11.29
2023-05-15T02:07:09.869Z,11.24
2023-05-15T02:10:19.121Z,11.20
2023-05-15T02:13:28.065Z,11.11
2023-05-15T02:16:37.207Z,11.13
2023-05-15T02:19:47.303Z,11.14
2023-05-15T02:22:56.419Z,11.11
2023-05-15T02:26:04.506Z,11.11
2023-05-15T02:29:14.741Z,11.06
2023-05-15T02:30:41.383Z,11.03
2023-05-15T02:33:49.999Z,10.94
2023-05-15T02:36:59.306Z,10.96
2023-05-15T02:40:09.019Z,10.96
2023-05-15T02:43:17.977Z,10.92
2023-05-15T02:46:26.135Z,10.81
2023-05-15T02:49:36.661Z,10.74
2023-05-15T02:52:45.024Z,10.77
2023-05-15T02:55:53.787Z,10.68
2023-05-15T02:59:03.715Z,10.51
2023-05-15T03:02:12.726Z,10.37
2023-05-15T03:05:20.818Z,10.36
2023-05-15T03:08:21.457Z,10.30
2023-05-15T03:11:30.222Z,10.18
2023-05-15T03:14:39.378Z,10.18
2023-05-15T03:17:48.740Z,10.09
2023-05-15T03:20:58.773Z,10.14
2023-05-15T03:24:07.536Z,10.10
2023-05-15T03:27:16.041Z,10.14
2023-05-15T03:30:26.902Z,10.17
2023-05-15T03:33:34.962Z,10.21
2023-05-15T03:36:44.309Z,10.19
2023-05-15T03:39:55.010Z,10.18
2023-05-15T03:43:03.479Z,10.10
2023-05-15T03:46:12.830Z,10.17
2023-05-15T03:49:23.179Z,10.19
2023-05-15T03:52:32.490Z,10.15
2023-05-15T03:55:41.480Z,10.28
2023-05-15T03:56:57.233Z,10.34
2023-05-15T04:00:07.120Z,10.44
2023-05-15T04:03:16.387Z,10.58
2023-05-15T04:06:25.165Z,10.68
2023-05-15T04:09:24.832Z,10.80
2023-05-15T04:12:33.891Z,10.84
2023-05-15T04:15:43.044Z,10.89
2023-05-15T04:18:51.743Z,10.88
2023-05-15T04:22:01.297Z,10.86
2023-05-15T04:25:10.472Z,10.91
2023-05-15T04:28:19.315Z,10.94
2023-05-15T04:31:30.034Z,10.84
2023-05-15T04:34:38.298Z,10.81
2023-05-15T04:37:47.560Z,10.88
2023-05-15T04:40:58.114Z,10.92
2023-05-15T04:44:07.087Z,10.88
2023-05-15T04:47:15.896Z,10.89
2023-05-15T04:50:26.514Z,10.99
2023-05-15T04:53:35.113Z,11.10
2023-05-15T04:56:44.133Z,11.16
2023-05-15T04:59:52.702Z,11.24
2023-05-15T05:03:03.630Z,11.28
2023-05-15T05:06:03.534Z,11.25
2023-05-15T05:09:12.057Z,11.28
2023-05-15T05:12:23.339Z,11.44
2023-05-15T05:15:31.844Z,11.54
2023-05-15T05:18:41.103Z,11.70
2023-05-15T05:21:51.143Z,11.80
2023-05-15T05:24:59.913Z,11.96
2023-05-15T05:28:09.893Z,12.06
2023-05-15T05:31:19.372Z,12.11
2023-05-15T05:34:28.506Z,12.12
2023-05-15T05:37:40.247Z,12.23
2023-05-15T05:40:40.373Z,12.31
2023-05-15T05:43:49.381Z,12.49
2023-05-15T05:46:57.930Z,12.66
2023-05-15T05:50:06.684Z,12.87
2023-05-15T05:53:16.641Z,13.09
2023-05-15T05:56:26.266Z,13.29
2023-05-15T05:59:34.532Z,13.43
2023-05-15T06:02:45.282Z,13.55
2023-05-15T06:05:53.565Z,13.70
2023-05-15T06:09:01.945Z,13.76
2023-05-15T06:12:12.088Z,13.80
2023-05-15T06:15:20.877Z,13.92
2023-05-15T06:18:32.142Z,14.06
2023-05-15T06:21:31.958Z,14.25
2023-05-15T06:24:40.719Z,14.46
2023-05-15T06:27:49.155Z,14.68
2023-05-15T06:30:57.865Z,14.91
2023-05-15T06:34:08.184Z,14.94
2023-05-15T06:37:16.815Z,14.90
2023-05-15T06:40:25.546Z,14.95
2023-05-15T06:41:19.678Z,14.98
2023-05-15T06:44:29.201Z,15.12
2023-05-15T06:47:38.124Z,15.15
2023-05-15T06:50:46.573Z,15.30
2023-05-15T06:53:57.162Z,15.43
2023-05-15T06:57:05.445Z,15.54
2023-05-15T07:00:14.127Z,15.84
2023-05-15T07:03:24.535Z,16.11
2023-05-15T07:06:34.189Z,16.38
2023-05-15T07:09:42.296Z,16.53
2023-05-15T07:12:53.128Z,16.42
2023-05-15T07:16:02.206Z,16.60
2023-05-15T07:19:10.652Z,16.93
2023-05-15T07:22:21.508Z,17.17
2023-05-15T07:25:30.349Z,17.35
2023-05-15T07:28:39.789Z,17.47
2023-05-15T07:31:47.876Z,17.66
2023-05-15T07:34:57.872Z,17.81
2023-05-15T07:38:06.321Z,17.95
2023-05-15T07:41:15.550Z,17.94
2023-05-15T07:44:26.275Z,18.03
2023-05-15T07:47:34.601Z,18.28
2023-05-15T07:50:43.660Z,18.46
2023-05-15T07:53:54.099Z,18.67
2023-05-15T07:57:02.100Z,18.82
2023-05-15T08:00:11.305Z,18.91
2023-05-15T08:03:11.153Z,19.11
2023-05-15T08:06:19.593Z,19.21
2023-05-15T08:09:28.720Z,19.36
2023-05-15T08:12:36.713Z,19.60
2023-05-15T08:15:47.034Z,19.68
2023-05-15T08:18:55.898Z,19.48
2023-05-15T08:22:05.319Z,19.15
2023-05-15T08:25:05.641Z,19.31
2023-05-15T08:27:04.545Z,19.38
2023-05-15T08:30:14.780Z,19.43
2023-05-15T08:33:24.967Z,19.32
2023-05-15T08:36:37.775Z,19.39
2023-05-15T08:39:35.938Z,19.08
2023-05-15T08:42:44.981Z,18.97
2023-05-15T08:45:55.615Z,19.01
2023-05-15T08:49:03.680Z,19.20
2023-05-15T08:52:12.726Z,19.35
2023-05-15T08:55:23.341Z,19.57
2023-05-15T08:58:31.446Z,19.63
2023-05-15T09:01:40.728Z,19.68
2023-05-15T09:04:50.593Z,19.79
2023-05-15T09:07:59.036Z,19.88
2023-05-15T09:11:07.978Z,19.84
2023-05-15T09:14:18.411Z,19.98
2023-05-15T09:17:28.011Z,20.15
2023-05-15T09:21:15.308Z,20.28
2023-05-15T09:24:16.571Z,20.41
2023-05-15T09:27:25.255Z,20.30
2023-05-15T09:30:33.994Z,20.46
2023-05-15T09:33:43.792Z,20.68
2023-05-15T09:36:53.435Z,20.81
2023-05-15T09:40:01.969Z,20.93
2023-05-15T09:43:10.731Z,20.90
2023-05-15T09:46:21.198Z,20.93
2023-05-15T09:49:32.032Z,21.09
2023-05-15T09:52:31.393Z,21.26
2023-05-15T09:55:41.282Z,21.53
2023-05-15T09:58:50.240Z,21.53
2023-05-15T10:01:58.781Z,21.63
2023-05-15T10:05:08.897Z,21.88
2023-05-15T10:08:17.982Z,21.97
2023-05-15T10:11:27.288Z,22.27
2023-05-15T10:14:35.413Z,22.22
2023-05-15T10:17:46.328Z,22.20
2023-05-15T10:20:55.163Z,22.32
2023-05-15T10:24:03.425Z,22.28
2023-05-15T10:27:13.545Z,22.14
2023-05-15T10:30:22.355Z,21.94
2023-05-15T10:33:30.873Z,21.60
2023-05-15T10:36:40.630Z,21.50
2023-05-15T10:39:49.466Z,21.60
2023-05-15T10:42:57.956Z,21.74
2023-05-15T10:46:07.821Z,21.78
2023-05-15T10:49:17.034Z,21.88
2023-05-15T10:52:25.481Z,22.07
2023-05-15T10:55:35.685Z,22.13
2023-05-15T10:58:44.255Z,22.22
2023-05-15T11:01:53.384Z,22.22
2023-05-15T11:05:02.222Z,22.25
2023-05-15T11:08:12.969Z,22.20
2023-05-15T11:11:21.961Z,22.04
2023-05-15T11:14:31.262Z,21.66
2023-05-15T11:17:30.997Z,21.14
2023-05-15T11:20:39.640Z,19.84
2023-05-15T11:23:48.132Z,18.18
2023-05-15T11:27:00.277Z,17.54
2023-05-15T11:30:08.945Z,17.55
2023-05-15T11:33:56.202Z,17.28
2023-05-15T11:36:56.303Z,17.47
2023-05-15T11:40:04.573Z,17.53
2023-05-15T11:43:13.878Z,17.66
2023-05-15T11:46:24.719Z,18.15
2023-05-15T11:49:33.566Z,18.29
2023-05-15T11:52:42.680Z,18.02
2023-05-15T11:55:51.415Z,17.46
2023-05-15T11:59:01.461Z,17.18
2023-05-15T12:02:10.379Z,16.95
2023-05-15T12:05:19.172Z,16.48
2023-05-15T12:08:30.085Z,16.11
2023-05-15T12:11:38.185Z,16.16
2023-05-15T12:14:47.782Z,16.20
2023-05-15T12:17:58.303Z,16.33
2023-05-15T12:21:06.726Z,16.58
2023-05-15T12:24:15.824Z,16.89
2023-05-15T12:25:09.714Z,16.99
2023-05-15T12:28:20.094Z,17.29
2023-05-15T12:31:29.338Z,17.66
2023-05-15T12:34:38.303Z,17.99
2023-05-15T12:37:48.208Z,18.33
2023-05-15T12:40:56.798Z,18.55
2023-05-15T12:44:06.026Z,18.72
2023-05-15T12:47:14.035Z,18.91
2023-05-15T12:50:24.533Z,19.35
2023-05-15T12:53:34.401Z,19.57
2023-05-15T12:56:42.820Z,19.76
2023-05-15T12:59:52.689Z,19.97
2023-05-15T13:03:01.810Z,20.08
2023-05-15T13:06:10.984Z,20.28
2023-05-15T13:09:20.393Z,20.38
2023-05-15T13:12:29.229Z,20.56
2023-05-15T13:15:38.358Z,20.64
2023-05-15T13:18:38.178Z,20.69
2023-05-15T13:21:47.127Z,20.74
2023-05-15T13:24:55.708Z,20.69
2023-05-15T13:28:04.540Z,20.68
2023-05-15T13:31:15.390Z,20.81
2023-05-15T13:34:25.105Z,20.89
2023-05-15T13:37:34.215Z,20.90
2023-05-15T13:40:45.201Z,20.98
2023-05-15T13:43:53.775Z,21.11
2023-05-15T13:47:02.784Z,21.20
2023-05-15T13:50:50.995Z,21.24
2023-05-15T13:53:59.870Z,21.35
2023-05-15T13:57:08.703Z,21.44
2023-05-15T14:00:08.407Z,21.63
2023-05-15T14:03:17.562Z,21.90
2023-05-15T14:06:25.449Z,22.09
2023-05-15T14:09:36.294Z,22.28
2023-05-15T14:12:44.992Z,22.41
2023-05-15T14:15:53.533Z,22.56
2023-05-15T14:19:02.362Z,22.50
2023-05-15T14:22:01.959Z,22.44
2023-05-15T14:25:10.517Z,22.01
2023-05-15T14:28:19.574Z,21.78
2023-05-15T14:31:30.168Z,21.71
2023-05-15T14:34:38.732Z,21.60
2023-05-15T14:37:47.183Z,21.57
2023-05-15T14:40:57.590Z,21.61
2023-05-15T14:44:05.626Z,21.94
2023-05-15T14:47:14.669Z,22.16
2023-05-15T14:50:15.172Z,22.25
2023-05-15T14:53:23.819Z,22.16
2023-05-15T14:56:33.644Z,22.07
2023-05-15T14:59:41.978Z,22.16
2023-05-15T15:02:51.902Z,21.97
2023-05-15T15:06:00.523Z,21.45
2023-05-15T15:09:08.520Z,21.19
2023-05-15T15:12:18.118Z,20.90
2023-05-15T15:15:26.952Z,20.76
2023-05-15T15:18:35.395Z,20.58
2023-05-15T15:21:45.792Z,20.30
2023-05-15T15:24:55.364Z,20.09
2023-05-15T15:28:04.567Z,19.86
2023-05-15T15:31:13.972Z,19.53
2023-05-15T15:34:23.153Z,19.39
2023-05-15T15:37:31.501Z,19.21
2023-05-15T15:40:41.858Z,19.17
2023-05-15T15:43:50.587Z,19.24
2023-05-15T15:47:37.206Z,19.18
2023-05-15T15:50:46.774Z,19.18
2023-05-15T15:53:56.594Z,19.18
2023-05-15T15:57:05.099Z,19.18
2023-05-15T16:00:13.373Z,19.28
2023-05-15T16:03:23.943Z,19.40
2023-05-15T16:06:32.538Z,19.48
2023-05-15T16:09:40.736Z,19.42
2023-05-15T16:12:51.153Z,19.40
2023-05-15T16:15:59.831Z,19.40
2023-05-15T16:19:08.164Z,19.43
2023-05-15T16:22:18.040Z,19.47
2023-05-15T16:25:26.588Z,19.43
2023-05-15T16:28:34.771Z,19.33
2023-05-15T16:31:43.910Z,19.33
2023-05-15T16:34:52.925Z,19.17
2023-05-15T16:38:01.080Z,19.15
2023-05-15T16:41:10.183Z,19.14
2023-05-15T16:44:20.324Z,19.10
2023-05-15T16:47:29.010Z,18.99
2023-05-15T16:50:38.185Z,18.92
2023-05-15T16:53:38.260Z,18.87
2023-05-15T16:56:46.173Z,18.84
2023-05-15T16:59:54.976Z,18.86
2023-05-15T17:03:04.916Z,18.91
2023-05-15T17:06:13.361Z,18.94
2023-05-15T17:09:22.112Z,18.97
2023-05-15T17:12:31.551Z,19.06
2023-05-15T17:15:39.881Z,19.06
2023-05-15T17:18:49.099Z,19.10
2023-05-15T17:21:57.288Z,19.15
2023-05-15T17:25:06.762Z,19.08
2023-05-15T17:28:15.418Z,18.94
2023-05-15T17:31:23.511Z,18.86
2023-05-15T17:34:33.152Z,18.79
2023-05-15T17:37:41.862Z,18.65
2023-05-15T17:40:50.542Z,18.57
2023-05-15T17:44:00.512Z,18.57
2023-05-15T17:47:08.916Z,18.57
2023-05-15T17:50:17.122Z,18.59
2023-05-15T17:53:27.413Z,18.61
2023-05-15T17:56:36.159Z,18.57
2023-05-15T17:59:44.198Z,18.43
2023-05-15T18:02:54.345Z,18.29
2023-05-15T18:06:02.222Z,18.17
2023-05-15T18:09:10.426Z,18.04
2023-05-15T18:12:18.552Z,17.92
2023-05-15T18:15:29.228Z,17.78
2023-05-15T18:18:38.164Z,17.55
2023-05-15T18:21:46.594Z,17.41
2023-05-15T18:24:56.098Z,17.32
2023-05-15T18:28:06.076Z,17.20
2023-05-15T18:31:14.539Z,17.08
2023-05-15T18:34:24.586Z,17.03
2023-05-15T18:37:32.813Z,16.96
2023-05-15T18:40:41.526Z,16.92
2023-05-15T18:43:51.505Z,16.92
2023-05-15T18:47:00.809Z,16.90
2023-05-15T18:50:09.773Z,16.85
2023-05-15T18:53:18.538Z,16.85
2023-05-15T18:56:27.661Z,16.78
2023-05-15T18:59:36.423Z,16.78
2023-05-15T19:02:46.375Z,16.70
2023-05-15T19:05:45.293Z,16.58
2023-05-15T19:08:54.111Z,16.48
2023-05-15T19:12:02.688Z,16.38
2023-05-15T19:15:11.962Z,16.31
2023-05-15T19:18:21.698Z,16.26
2023-05-15T19:21:31.130Z,16.26
2023-05-15T19:24:40.902Z,16.25
2023-05-15T19:27:49.190Z,16.26
2023-05-15T19:30:57.808Z,16.30
2023-05-15T19:34:06.741Z,16.33
2023-05-15T19:37:16.304Z,16.34
2023-05-15T19:40:24.813Z,16.33
2023-05-15T19:43:32.988Z,16.31
2023-05-15T19:46:43.016Z,16.30
2023-05-15T19:49:52.386Z,16.26
2023-05-15T19:53:01.150Z,16.23
2023-05-15T19:56:11.020Z,16.20
2023-05-15T19:59:19.889Z,16.14
2023-05-15T20:02:28.742Z,16.07
2023-05-15T20:05:38.079Z,16.03
2023-05-15T20:08:47.192Z,15.96
2023-05-15T20:11:55.421Z,15.89
2023-05-15T20:15:05.104Z,15.82
2023-05-15T20:18:13.025Z,15.78
2023-05-15T20:21:21.779Z,15.68
2023-05-15T20:24:30.891Z,15.61
2023-05-15T20:27:41.137Z,15.54
2023-05-15T20:30:49.380Z,15.52
2023-05-15T20:33:58.716Z,15.48
2023-05-15T20:37:07.939Z,15.38
2023-05-15T20:40:16.813Z,15.24
2023-05-15T20:43:24.798Z,15.12
2023-05-15T20:46:35.842Z,14.98
2023-05-15T20:49:43.974Z,14.83
2023-05-15T20:52:52.343Z,14.68
2023-05-15T20:56:02.541Z,14.56
2023-05-15T20:59:10.840Z,14.44
2023-05-15T21:02:19.466Z,14.32
2023-05-15T21:05:28.054Z,14.20
2023-05-15T21:08:38.514Z,14.06
2023-05-15T21:11:47.141Z,13.92
2023-05-15T21:14:54.970Z,13.79
2023-05-15T21:18:04.994Z,13.67
2023-05-15T21:21:13.876Z,13.58
2023-05-15T21:24:22.167Z,13.49
2023-05-15T21:27:33.153Z,13.43
2023-05-15T21:30:41.412Z,13.36
2023-05-15T21:33:50.574Z,13.27
2023-05-15T21:37:00.313Z,13.20
2023-05-15T21:40:08.796Z,13.09
2023-05-15T21:43:17.424Z,12.97
2023-05-15T21:46:26.727Z,12.84
2023-05-15T21:49:35.476Z,12.74
2023-05-15T21:52:44.233Z,12.63
2023-05-15T21:55:52.630Z,12.54
2023-05-15T21:59:02.746Z,12.48
2023-05-15T22:02:11.056Z,12.34
2023-05-15T22:05:20.253Z,12.23
2023-05-15T22:08:29.713Z,12.12
2023-05-15T22:11:38.801Z,12.05
2023-05-15T22:14:58.429Z,11.93
2023-05-15T22:17:54.339Z,11.72
2023-05-15T22:21:02.829Z,11.67
2023-05-15T22:24:11.426Z,11.61
2023-05-15T22:27:21.116Z,11.52
2023-05-15T22:30:29.790Z,11.35
2023-05-15T22:33:38.668Z,11.24
2023-05-15T22:36:47.004Z,11.10
2023-05-15T22:39:57.178Z,10.95
2023-05-15T22:43:06.375Z,10.89
2023-05-15T22:46:14.689Z,10.80
2023-05-15T22:49:24.650Z,10.78
2023-05-15T22:52:33.513Z,10.77
2023-05-15T22:55:41.686Z,10.78
2023-05-15T22:58:51.834Z,10.84
2023-05-15T23:02:00.137Z,10.91
2023-05-15T23:05:08.481Z,10.92
2023-05-15T23:08:17.973Z,10.88
2023-05-15T23:11:26.652Z,10.80
2023-05-15T23:14:35.181Z,10.78
2023-05-15T23:17:44.997Z,10.68
2023-05-15T23:20:53.559Z,10.70
2023-05-15T23:24:01.836Z,10.65
2023-05-15T23:27:10.137Z,10.71
2023-05-15T23:30:19.905Z,10.68
2023-05-15T23:33:28.320Z,10.70
2023-05-15T23:36:36.564Z,10.68
2023-05-15T23:39:46.705Z,10.68
2023-05-15T23:42:54.616Z,10.65
2023-05-15T23:46:02.870Z,10.63
2023-05-15T23:49:13.044Z,10.63
2023-05-15T23:52:21.049Z,10.70
2023-05-15T23:55:29.688Z,10.68
2023-05-15T23:58:39.888Z,10.63
